createdAt,value
2023-03-06T00:06:35.853Z,0.83
2023-03-06T00:16:35.908Z,0.95
2023-03-06T00:26:36.049Z,1.1
2023-03-06T00:36:35.834Z,1.17
2023-03-06T00:46:35.875Z,1.18
2023-03-06T00:56:35.841Z,1.12
2023-03-06T01:06:35.879Z,1.1
2023-03-06T01:16:35.892Z,1.05
2023-03-06T01:26:35.893Z,1.15
2023-03-06T01:36:35.903Z,1.21
2023-03-06T01:46:35.921Z,1.27
2023-03-06T01:56:35.849Z,1.08
2023-03-06T02:06:35.900Z,0.89
2023-03-06T02:16:35.891Z,0.75
2023-03-06T02:26:35.888Z,0.72
2023-03-06T02:36:35.884Z,0.65
2023-03-06T02:46:35.935Z,0.38
2023-03-06T02:56:35.902Z,0.07
2023-03-06T03:06:35.964Z,-0.24
2023-03-06T03:16:38.155Z,-0.45
2023-03-06T03:26:36.021Z,-0.72
2023-03-06T03:36:35.972Z,-0.85
2023-03-06T03:46:36.062Z,-0.8
2023-03-06T03:56:35.921Z,-0.94
2023-03-06T04:06:36.020Z,-1.04
2023-03-06T04:16:36.039Z,-1.17
2023-03-06T04:26:35.974Z,-1.55
2023-03-06T04:36:35.949Z,-1.49
2023-03-06T04:46:36.029Z,-1.48
2023-03-06T04:56:36.021Z,-1.67
2023-03-06T05:06:36.069Z,-1.86
2023-03-06T05:16:36.189Z,-1.89
2023-03-06T05:26:36.033Z,-1.97
2023-03-06T05:36:35.988Z,-2.1
2023-03-06T05:46:36.016Z,-1.97
2023-03-06T05:56:36.041Z,-1.71
2023-03-06T06:06:36.043Z,-1.44
2023-03-06T06:16:36.081Z,-1.14
2023-03-06T06:26:36.043Z,-0.81
2023-03-06T06:36:36.066Z,-0.38
2023-03-06T06:56:36.079Z,0.4
2023-03-06T07:06:36.083Z,0.64
2023-03-06T07:16:36.139Z,1.03
2023-03-06T07:26:36.091Z,1.51
2023-03-06T07:36:36.062Z,1.97
2023-03-06T07:46:36.185Z,2.43
2023-03-06T07:56:36.049Z,2.88
2023-03-06T08:06:36.106Z,2.87
2023-03-06T08:16:36.159Z,3.24
2023-03-06T08:26:36.136Z,3.94
2023-03-06T08:36:36.068Z,4.78
2023-03-06T08:46:36.103Z,5.23
2023-03-06T08:56:36.113Z,5.61
2023-03-06T09:06:36.116Z,5.49
2023-03-06T09:16:36.185Z,5.92
2023-03-06T09:26:45.360Z,6.43
2023-03-06T09:36:49.481Z,7.15
2023-03-06T09:46:36.122Z,7.49
2023-03-06T09:56:36.062Z,7.46
2023-03-06T10:06:36.100Z,7.35
2023-03-06T10:16:36.044Z,7.4
2023-03-06T10:26:36.228Z,7.65
2023-03-06T10:36:36.061Z,7.77
2023-03-06T10:46:36.252Z,7.61
2023-03-06T10:56:36.212Z,7.61
2023-03-06T11:06:36.105Z,7.5
2023-03-06T11:16:36.070Z,7.48
2023-03-06T11:26:36.167Z,7.75
2023-03-06T11:36:36.037Z,7.85
2023-03-06T11:46:36.111Z,8
2023-03-06T11:56:36.032Z,8.16
2023-03-06T12:06:36.125Z,8
2023-03-06T12:16:36.110Z,8.08
2023-03-06T12:26:36.103Z,8.26
2023-03-06T12:36:36.013Z,8.42
2023-03-06T12:46:36.081Z,8.28
2023-03-06T12:56:36.098Z,8.02
2023-03-06T13:06:39.116Z,8.04
2023-03-06T13:16:36.032Z,7.99
2023-03-06T13:26:36.172Z,8.07
2023-03-06T13:36:38.389Z,8.22
2023-03-06T13:46:36.121Z,8.45
2023-03-06T13:56:36.032Z,8.66
2023-03-06T14:06:36.064Z,8.69
2023-03-06T14:16:48.814Z,8.84
2023-03-06T14:26:36.045Z,8.88
2023-03-06T14:36:35.990Z,8.6
2023-03-06T14:46:36.242Z,8.38
2023-03-06T14:56:36.023Z,8.19
2023-03-06T15:06:36.120Z,8.2
2023-03-06T15:16:36.013Z,8.45
2023-03-06T15:26:36.031Z,8.38
2023-03-06T15:36:35.961Z,8.34
2023-03-06T15:46:36.124Z,8.23
2023-03-06T15:56:35.937Z,7.99
2023-03-06T16:06:35.999Z,7.69
2023-03-06T16:16:36.006Z,7.58
2023-03-06T16:26:35.986Z,7.38
2023-03-06T16:36:35.949Z,7.19
2023-03-06T16:46:35.976Z,6.76
2023-03-06T16:56:35.947Z,6.23
2023-03-06T17:06:35.952Z,5.76
2023-03-06T17:16:35.947Z,5.66
2023-03-06T17:26:35.970Z,5.43
2023-03-06T17:36:35.946Z,5.35
2023-03-06T17:46:36.007Z,5.23
2023-03-06T17:56:35.940Z,4.94
2023-03-06T18:06:35.975Z,4.55
2023-03-06T18:16:36.077Z,4.41
2023-03-06T18:26:35.974Z,4.21
2023-03-06T18:36:35.958Z,4.33
2023-03-06T18:46:35.980Z,4.32
2023-03-06T18:56:35.944Z,4.4
2023-03-06T19:06:36.006Z,4.18
2023-03-06T19:16:36.004Z,4.06
2023-03-06T19:26:35.968Z,3.78
2023-03-06T19:36:35.972Z,3.46
2023-03-06T19:46:35.991Z,3
2023-03-06T19:56:36.000Z,2.78
2023-03-06T20:06:35.988Z,2.38
2023-03-06T20:16:35.993Z,2.27
2023-03-06T20:26:36.005Z,2.31
2023-03-06T20:36:36.312Z,2.43
2023-03-06T20:46:36.125Z,2.34
2023-03-06T20:56:35.992Z,2.34
2023-03-06T21:06:36.118Z,2.22
2023-03-06T21:16:36.087Z,1.97
2023-03-06T21:26:36.008Z,1.94
2023-03-06T21:36:36.047Z,2.02
2023-03-06T21:46:36.095Z,1.84
2023-03-06T21:56:36.054Z,1.78
2023-03-06T22:06:36.093Z,1.72
2023-03-06T22:16:36.159Z,1.36
2023-03-06T22:26:36.086Z,1.21
2023-03-06T22:36:36.031Z,1.13
2023-03-06T22:46:36.111Z,0.86
2023-03-06T22:56:36.047Z,0.83
2023-03-06T23:06:36.076Z,0.61
2023-03-06T23:16:36.101Z,0.67
2023-03-06T23:26:36.097Z,0.68
2023-03-06T23:36:36.030Z,0.51
2023-03-06T23:46:36.142Z,0.54
2023-03-06T23:56:36.057Z,0.42
